sensor_id;sensor_type;location;lat;lon;timestamp;P1;durP1;ratioP1;P2;durP2;ratioP2
11646;SDS011;5880;52.342;9.662;2023-05-28T00:02:11;5.67;;;4.07;;
11646;SDS011;5880;52.342;9.662;2023-05-28T00:04:37;6.47;;;3.93;;
11646;SDS011;5880;52.342;9.662;2023-05-28T00:07:03;6.83;;;4.10;;
11646;SDS011;5880;52.342;9.662;2023-05-28T00:09:29;7.40;;;4.10;;
11646;SDS011;5880;52.342;9.662;2023-05-28T00:11:54;4.53;;;3.90;;
11646;SDS011;5880;52.342;9.662;2023-05-28T00:14:21;7.33;;;4.10;;
11646;SDS011;5880;52.342;9.662;2023-05-28T00:16:46;4.17;;;3.73;;
11646;SDS011;5880;52.342;9.662;2023-05-28T00:19:12;6.67;;;3.80;;
11646;SDS011;5880;52.342;9.662;2023-05-28T00:21:38;5.90;;;3.93;;
11646;SDS011;5880;52.342;9.662;2023-05-28T00:24:04;4.50;;;3.60;;
11646;SDS011;5880;52.342;9.662;2023-05-28T00:26:30;3.73;;;3.13;;
11646;SDS011;5880;52.342;9.662;2023-05-28T00:28:55;4.03;;;3.47;;
11646;SDS011;5880;52.342;9.662;2023-05-28T00:31:21;7.83;;;3.70;;
11646;SDS011;5880;52.342;9.662;2023-05-28T00:33:47;5.47;;;3.83;;
11646;SDS011;5880;52.342;9.662;2023-05-28T00:36:12;8.23;;;3.93;;
11646;SDS011;5880;52.342;9.662;2023-05-28T00:38:38;4.20;;;3.37;;
11646;SDS011;5880;52.342;9.662;2023-05-28T00:41:04;4.87;;;3.77;;
11646;SDS011;5880;52.342;9.662;2023-05-28T00:43:31;5.20;;;3.63;;
11646;SDS011;5880;52.342;9.662;2023-05-28T00:46:00;4.70;;;3.60;;
11646;SDS011;5880;52.342;9.662;2023-05-28T00:48:28;5.57;;;3.33;;
11646;SDS011;5880;52.342;9.662;2023-05-28T00:50:55;4.63;;;3.73;;
11646;SDS011;5880;52.342;9.662;2023-05-28T00:53:23;4.33;;;3.60;;
11646;SDS011;5880;52.342;9.662;2023-05-28T00:55:50;5.20;;;3.70;;
11646;SDS011;5880;52.342;9.662;2023-05-28T00:58:17;5.37;;;3.73;;
11646;SDS011;5880;52.342;9.662;2023-05-28T01:00:44;4.27;;;3.70;;
11646;SDS011;5880;52.342;9.662;2023-05-28T01:03:14;6.50;;;4.07;;
11646;SDS011;5880;52.342;9.662;2023-05-28T01:05:39;4.47;;;3.67;;
11646;SDS011;5880;52.342;9.662;2023-05-28T01:08:06;5.53;;;4.00;;
11646;SDS011;5880;52.342;9.662;2023-05-28T01:10:32;6.13;;;3.97;;
11646;SDS011;5880;52.342;9.662;2023-05-28T01:13:00;5.90;;;3.93;;
11646;SDS011;5880;52.342;9.662;2023-05-28T01:15:31;4.03;;;3.60;;
11646;SDS011;5880;52.342;9.662;2023-05-28T01:17:59;6.67;;;4.10;;
11646;SDS011;5880;52.342;9.662;2023-05-28T01:20:26;4.97;;;3.67;;
11646;SDS011;5880;52.342;9.662;2023-05-28T01:22:54;6.90;;;3.50;;
11646;SDS011;5880;52.342;9.662;2023-05-28T01:25:25;13.27;;;3.87;;
11646;SDS011;5880;52.342;9.662;2023-05-28T01:27:52;4.33;;;3.87;;
11646;SDS011;5880;52.342;9.662;2023-05-28T01:30:18;5.77;;;3.50;;
11646;SDS011;5880;52.342;9.662;2023-05-28T01:32:45;5.67;;;3.90;;
11646;SDS011;5880;52.342;9.662;2023-05-28T01:35:10;4.73;;;3.70;;
11646;SDS011;5880;52.342;9.662;2023-05-28T01:37:41;4.63;;;3.70;;
11646;SDS011;5880;52.342;9.662;2023-05-28T01:40:22;7.43;;;3.73;;
11646;SDS011;5880;52.342;9.662;2023-05-28T01:42:49;5.63;;;3.80;;
11646;SDS011;5880;52.342;9.662;2023-05-28T01:45:19;4.83;;;3.60;;
11646;SDS011;5880;52.342;9.662;2023-05-28T01:47:46;4.63;;;3.50;;
11646;SDS011;5880;52.342;9.662;2023-05-28T01:50:13;5.93;;;3.47;;
11646;SDS011;5880;52.342;9.662;2023-05-28T01:52:39;8.00;;;4.13;;
11646;SDS011;5880;52.342;9.662;2023-05-28T01:55:05;5.43;;;4.20;;
11646;SDS011;5880;52.342;9.662;2023-05-28T01:57:33;4.13;;;3.67;;
11646;SDS011;5880;52.342;9.662;2023-05-28T02:00:00;5.23;;;3.97;;
11646;SDS011;5880;52.342;9.662;2023-05-28T02:02:26;6.27;;;3.77;;
11646;SDS011;5880;52.342;9.662;2023-05-28T02:04:52;5.03;;;3.67;;
11646;SDS011;5880;52.342;9.662;2023-05-28T02:07:18;4.90;;;3.80;;
11646;SDS011;5880;52.342;9.662;2023-05-28T02:09:44;7.47;;;4.10;;
11646;SDS011;5880;52.342;9.662;2023-05-28T02:12:10;5.97;;;3.83;;
11646;SDS011;5880;52.342;9.662;2023-05-28T02:14:36;5.23;;;3.83;;
11646;SDS011;5880;52.342;9.662;2023-05-28T02:17:02;6.60;;;4.30;;
11646;SDS011;5880;52.342;9.662;2023-05-28T02:19:28;5.37;;;3.90;;
11646;SDS011;5880;52.342;9.662;2023-05-28T02:21:54;4.07;;;3.50;;
11646;SDS011;5880;52.342;9.662;2023-05-28T02:24:21;7.10;;;3.97;;
11646;SDS011;5880;52.342;9.662;2023-05-28T02:26:47;6.30;;;4.47;;
11646;SDS011;5880;52.342;9.662;2023-05-28T02:29:12;7.97;;;4.00;;
11646;SDS011;5880;52.342;9.662;2023-05-28T02:31:39;4.70;;;4.07;;
11646;SDS011;5880;52.342;9.662;2023-05-28T02:34:05;5.97;;;4.20;;
11646;SDS011;5880;52.342;9.662;2023-05-28T02:36:32;5.07;;;3.80;;
11646;SDS011;5880;52.342;9.662;2023-05-28T02:38:58;4.93;;;4.30;;
11646;SDS011;5880;52.342;9.662;2023-05-28T02:41:24;6.27;;;4.37;;
11646;SDS011;5880;52.342;9.662;2023-05-28T02:43:51;10.90;;;4.30;;
11646;SDS011;5880;52.342;9.662;2023-05-28T02:46:18;4.63;;;3.83;;
11646;SDS011;5880;52.342;9.662;2023-05-28T02:48:43;5.63;;;4.17;;
11646;SDS011;5880;52.342;9.662;2023-05-28T02:51:10;6.60;;;4.40;;
11646;SDS011;5880;52.342;9.662;2023-05-28T02:53:36;6.90;;;4.20;;
11646;SDS011;5880;52.342;9.662;2023-05-28T02:56:02;4.60;;;3.87;;
11646;SDS011;5880;52.342;9.662;2023-05-28T02:58:28;5.30;;;4.20;;
11646;SDS011;5880;52.342;9.662;2023-05-28T03:00:55;5.47;;;4.07;;
11646;SDS011;5880;52.342;9.662;2023-05-28T03:03:21;8.07;;;4.40;;
11646;SDS011;5880;52.342;9.662;2023-05-28T03:05:47;5.87;;;4.43;;
11646;SDS011;5880;52.342;9.662;2023-05-28T03:08:15;5.80;;;4.03;;
11646;SDS011;5880;52.342;9.662;2023-05-28T03:10:41;5.63;;;4.00;;
11646;SDS011;5880;52.342;9.662;2023-05-28T03:13:07;5.20;;;4.10;;
11646;SDS011;5880;52.342;9.662;2023-05-28T03:15:33;6.23;;;4.10;;
11646;SDS011;5880;52.342;9.662;2023-05-28T03:17:59;6.97;;;3.80;;
11646;SDS011;5880;52.342;9.662;2023-05-28T03:20:24;5.13;;;4.00;;
11646;SDS011;5880;52.342;9.662;2023-05-28T03:22:54;6.13;;;4.03;;
11646;SDS011;5880;52.342;9.662;2023-05-28T03:25:21;6.17;;;4.00;;
11646;SDS011;5880;52.342;9.662;2023-05-28T03:27:48;5.47;;;3.73;;
11646;SDS011;5880;52.342;9.662;2023-05-28T03:30:14;5.80;;;4.00;;
11646;SDS011;5880;52.342;9.662;2023-05-28T03:32:40;7.40;;;4.30;;
11646;SDS011;5880;52.342;9.662;2023-05-28T03:35:06;6.23;;;3.87;;
11646;SDS011;5880;52.342;9.662;2023-05-28T03:37:32;4.03;;;3.60;;
11646;SDS011;5880;52.342;9.662;2023-05-28T03:39:58;5.90;;;3.50;;
11646;SDS011;5880;52.342;9.662;2023-05-28T03:42:25;4.83;;;3.70;;
11646;SDS011;5880;52.342;9.662;2023-05-28T03:44:50;7.43;;;3.93;;
11646;SDS011;5880;52.342;9.662;2023-05-28T03:47:16;7.00;;;4.03;;
11646;SDS011;5880;52.342;9.662;2023-05-28T03:49:42;5.13;;;3.97;;
11646;SDS011;5880;52.342;9.662;2023-05-28T03:52:08;7.57;;;3.63;;
11646;SDS011;5880;52.342;9.662;2023-05-28T03:54:34;6.57;;;4.40;;
11646;SDS011;5880;52.342;9.662;2023-05-28T03:57:00;5.93;;;3.93;;
11646;SDS011;5880;52.342;9.662;2023-05-28T03:59:26;4.23;;;3.60;;
11646;SDS011;5880;52.342;9.662;2023-05-28T04:01:52;5.47;;;3.60;;
11646;SDS011;5880;52.342;9.662;2023-05-28T04:04:17;6.17;;;3.93;;
11646;SDS011;5880;52.342;9.662;2023-05-28T04:06:43;6.73;;;3.70;;
11646;SDS011;5880;52.342;9.662;2023-05-28T04:09:09;5.60;;;3.57;;
11646;SDS011;5880;52.342;9.662;2023-05-28T04:11:35;4.93;;;3.70;;
11646;SDS011;5880;52.342;9.662;2023-05-28T04:14:02;6.77;;;4.00;;
11646;SDS011;5880;52.342;9.662;2023-05-28T04:16:28;5.80;;;4.03;;
11646;SDS011;5880;52.342;9.662;2023-05-28T04:18:54;5.83;;;3.90;;
11646;SDS011;5880;52.342;9.662;2023-05-28T04:21:20;5.53;;;3.53;;
11646;SDS011;5880;52.342;9.662;2023-05-28T04:23:47;4.03;;;3.63;;
11646;SDS011;5880;52.342;9.662;2023-05-28T04:26:13;4.97;;;3.60;;
11646;SDS011;5880;52.342;9.662;2023-05-28T04:28:39;4.20;;;3.53;;
11646;SDS011;5880;52.342;9.662;2023-05-28T04:31:06;4.97;;;3.70;;
11646;SDS011;5880;52.342;9.662;2023-05-28T04:33:32;10.27;;;3.50;;
11646;SDS011;5880;52.342;9.662;2023-05-28T04:35:58;4.43;;;3.80;;
11646;SDS011;5880;52.342;9.662;2023-05-28T04:38:26;6.13;;;3.40;;
11646;SDS011;5880;52.342;9.662;2023-05-28T04:40:58;6.10;;;3.87;;
11646;SDS011;5880;52.342;9.662;2023-05-28T04:43:31;7.67;;;3.57;;
11646;SDS011;5880;52.342;9.662;2023-05-28T04:45:58;5.20;;;4.10;;
11646;SDS011;5880;52.342;9.662;2023-05-28T04:48:26;4.63;;;3.83;;
11646;SDS011;5880;52.342;9.662;2023-05-28T04:50:52;5.30;;;3.97;;
11646;SDS011;5880;52.342;9.662;2023-05-28T04:53:18;4.37;;;3.33;;
11646;SDS011;5880;52.342;9.662;2023-05-28T04:55:44;4.70;;;3.50;;
11646;SDS011;5880;52.342;9.662;2023-05-28T04:58:10;4.03;;;3.60;;
11646;SDS011;5880;52.342;9.662;2023-05-28T05:00:35;6.53;;;4.00;;
11646;SDS011;5880;52.342;9.662;2023-05-28T05:03:01;5.43;;;4.10;;
11646;SDS011;5880;52.342;9.662;2023-05-28T05:05:27;5.70;;;4.20;;
11646;SDS011;5880;52.342;9.662;2023-05-28T05:07:54;5.43;;;4.20;;
11646;SDS011;5880;52.342;9.662;2023-05-28T05:10:20;4.07;;;3.37;;
11646;SDS011;5880;52.342;9.662;2023-05-28T05:12:45;6.43;;;4.10;;
11646;SDS011;5880;52.342;9.662;2023-05-28T05:15:11;4.33;;;3.47;;
11646;SDS011;5880;52.342;9.662;2023-05-28T05:17:37;5.20;;;3.87;;
11646;SDS011;5880;52.342;9.662;2023-05-28T05:20:03;5.00;;;4.10;;
11646;SDS011;5880;52.342;9.662;2023-05-28T05:22:30;4.40;;;3.50;;
11646;SDS011;5880;52.342;9.662;2023-05-28T05:24:56;4.47;;;3.40;;
11646;SDS011;5880;52.342;9.662;2023-05-28T05:27:22;7.77;;;4.17;;
11646;SDS011;5880;52.342;9.662;2023-05-28T05:29:48;5.30;;;3.40;;
11646;SDS011;5880;52.342;9.662;2023-05-28T05:32:13;5.60;;;3.83;;
11646;SDS011;5880;52.342;9.662;2023-05-28T05:34:39;4.75;;;3.80;;
11646;SDS011;5880;52.342;9.662;2023-05-28T05:37:05;3.97;;;3.53;;
11646;SDS011;5880;52.342;9.662;2023-05-28T05:39:31;3.65;;;3.08;;
11646;SDS011;5880;52.342;9.662;2023-05-28T05:41:57;5.35;;;3.67;;
11646;SDS011;5880;52.342;9.662;2023-05-28T05:44:23;6.53;;;3.72;;
11646;SDS011;5880;52.342;9.662;2023-05-28T05:46:48;6.20;;;3.42;;
11646;SDS011;5880;52.342;9.662;2023-05-28T05:49:14;4.13;;;3.50;;
11646;SDS011;5880;52.342;9.662;2023-05-28T05:51:40;5.32;;;3.40;;
11646;SDS011;5880;52.342;9.662;2023-05-28T05:54:05;5.47;;;3.50;;
11646;SDS011;5880;52.342;9.662;2023-05-28T05:56:31;4.38;;;3.58;;
11646;SDS011;5880;52.342;9.662;2023-05-28T05:58:58;4.43;;;3.17;;
11646;SDS011;5880;52.342;9.662;2023-05-28T06:01:24;4.07;;;3.10;;
11646;SDS011;5880;52.342;9.662;2023-05-28T06:03:50;5.03;;;3.53;;
11646;SDS011;5880;52.342;9.662;2023-05-28T06:06:15;4.47;;;3.40;;
11646;SDS011;5880;52.342;9.662;2023-05-28T06:08:41;3.40;;;2.92;;
11646;SDS011;5880;52.342;9.662;2023-05-28T06:11:07;5.40;;;3.33;;
11646;SDS011;5880;52.342;9.662;2023-05-28T06:13:35;4.80;;;2.85;;
11646;SDS011;5880;52.342;9.662;2023-05-28T06:16:01;4.05;;;3.03;;
11646;SDS011;5880;52.342;9.662;2023-05-28T06:18:29;4.00;;;3.08;;
11646;SDS011;5880;52.342;9.662;2023-05-28T06:20:55;3.92;;;3.03;;
11646;SDS011;5880;52.342;9.662;2023-05-28T06:23:22;4.32;;;3.08;;
11646;SDS011;5880;52.342;9.662;2023-05-28T06:25:48;3.20;;;2.90;;
11646;SDS011;5880;52.342;9.662;2023-05-28T06:28:13;3.92;;;2.95;;
11646;SDS011;5880;52.342;9.662;2023-05-28T06:30:40;3.47;;;3.00;;
11646;SDS011;5880;52.342;9.662;2023-05-28T06:33:05;3.53;;;3.10;;
11646;SDS011;5880;52.342;9.662;2023-05-28T06:35:31;3.75;;;2.97;;
11646;SDS011;5880;52.342;9.662;2023-05-28T06:37:57;3.15;;;2.83;;
11646;SDS011;5880;52.342;9.662;2023-05-28T06:40:23;3.78;;;3.00;;
11646;SDS011;5880;52.342;9.662;2023-05-28T06:42:48;4.47;;;2.83;;
11646;SDS011;5880;52.342;9.662;2023-05-28T06:45:14;3.92;;;2.88;;
11646;SDS011;5880;52.342;9.662;2023-05-28T06:47:40;6.60;;;2.70;;
11646;SDS011;5880;52.342;9.662;2023-05-28T06:50:06;3.15;;;2.65;;
11646;SDS011;5880;52.342;9.662;2023-05-28T06:52:32;4.15;;;2.67;;
11646;SDS011;5880;52.342;9.662;2023-05-28T06:54:58;3.42;;;2.70;;
11646;SDS011;5880;52.342;9.662;2023-05-28T06:57:24;4.78;;;3.20;;
11646;SDS011;5880;52.342;9.662;2023-05-28T06:59:49;4.57;;;2.67;;
11646;SDS011;5880;52.342;9.662;2023-05-28T07:02:15;3.67;;;2.95;;
11646;SDS011;5880;52.342;9.662;2023-05-28T07:04:41;3.20;;;2.75;;
11646;SDS011;5880;52.342;9.662;2023-05-28T07:07:06;3.65;;;2.75;;
11646;SDS011;5880;52.342;9.662;2023-05-28T07:09:32;3.75;;;2.55;;
11646;SDS011;5880;52.342;9.662;2023-05-28T07:11:58;2.63;;;2.42;;
11646;SDS011;5880;52.342;9.662;2023-05-28T07:14:23;3.17;;;2.85;;
11646;SDS011;5880;52.342;9.662;2023-05-28T07:16:49;3.60;;;2.90;;
11646;SDS011;5880;52.342;9.662;2023-05-28T07:19:16;4.18;;;2.83;;
11646;SDS011;5880;52.342;9.662;2023-05-28T07:21:42;4.28;;;2.92;;
11646;SDS011;5880;52.342;9.662;2023-05-28T07:24:08;3.65;;;2.78;;
11646;SDS011;5880;52.342;9.662;2023-05-28T07:26:33;3.65;;;2.63;;
11646;SDS011;5880;52.342;9.662;2023-05-28T07:28:59;3.00;;;2.70;;
11646;SDS011;5880;52.342;9.662;2023-05-28T07:31:26;2.90;;;2.60;;
11646;SDS011;5880;52.342;9.662;2023-05-28T07:33:53;3.08;;;2.70;;
11646;SDS011;5880;52.342;9.662;2023-05-28T07:36:19;4.28;;;2.40;;
11646;SDS011;5880;52.342;9.662;2023-05-28T07:38:44;3.35;;;2.75;;
11646;SDS011;5880;52.342;9.662;2023-05-28T07:41:10;2.95;;;2.53;;
11646;SDS011;5880;52.342;9.662;2023-05-28T07:43:36;3.88;;;2.30;;
11646;SDS011;5880;52.342;9.662;2023-05-28T07:46:02;2.85;;;2.55;;
11646;SDS011;5880;52.342;9.662;2023-05-28T07:48:27;3.85;;;2.53;;
11646;SDS011;5880;52.342;9.662;2023-05-28T07:50:53;2.60;;;2.25;;
11646;SDS011;5880;52.342;9.662;2023-05-28T07:53:19;4.95;;;2.55;;
11646;SDS011;5880;52.342;9.662;2023-05-28T07:55:44;3.22;;;2.47;;
11646;SDS011;5880;52.342;9.662;2023-05-28T07:58:10;5.00;;;2.50;;
11646;SDS011;5880;52.342;9.662;2023-05-28T08:00:38;2.88;;;2.22;;
11646;SDS011;5880;52.342;9.662;2023-05-28T08:03:04;2.70;;;2.20;;
11646;SDS011;5880;52.342;9.662;2023-05-28T08:05:30;3.38;;;2.60;;
11646;SDS011;5880;52.342;9.662;2023-05-28T08:07:56;3.17;;;2.45;;
11646;SDS011;5880;52.342;9.662;2023-05-28T08:10:22;2.38;;;2.17;;
11646;SDS011;5880;52.342;9.662;2023-05-28T08:12:48;2.63;;;2.13;;
11646;SDS011;5880;52.342;9.662;2023-05-28T08:15:14;2.75;;;1.95;;
11646;SDS011;5880;52.342;9.662;2023-05-28T08:17:40;2.30;;;1.80;;
11646;SDS011;5880;52.342;9.662;2023-05-28T08:20:06;2.78;;;2.10;;
11646;SDS011;5880;52.342;9.662;2023-05-28T08:22:36;3.10;;;2.13;;
11646;SDS011;5880;52.342;9.662;2023-05-28T08:25:02;2.75;;;2.20;;
11646;SDS011;5880;52.342;9.662;2023-05-28T08:27:28;3.95;;;1.95;;
11646;SDS011;5880;52.342;9.662;2023-05-28T08:29:56;2.42;;;2.03;;
11646;SDS011;5880;52.342;9.662;2023-05-28T08:32:21;2.53;;;2.10;;
11646;SDS011;5880;52.342;9.662;2023-05-28T08:34:47;2.10;;;1.70;;
11646;SDS011;5880;52.342;9.662;2023-05-28T08:37:13;2.15;;;1.95;;
11646;SDS011;5880;52.342;9.662;2023-05-28T08:39:39;2.67;;;1.92;;
11646;SDS011;5880;52.342;9.662;2023-05-28T08:42:05;2.85;;;2.15;;
11646;SDS011;5880;52.342;9.662;2023-05-28T08:44:31;2.88;;;2.00;;
11646;SDS011;5880;52.342;9.662;2023-05-28T08:46:56;2.30;;;1.85;;
11646;SDS011;5880;52.342;9.662;2023-05-28T08:49:31;2.83;;;2.05;;
11646;SDS011;5880;52.342;9.662;2023-05-28T08:52:03;2.92;;;2.00;;
11646;SDS011;5880;52.342;9.662;2023-05-28T08:54:32;3.75;;;2.08;;
11646;SDS011;5880;52.342;9.662;2023-05-28T08:56:59;3.17;;;1.95;;
11646;SDS011;5880;52.342;9.662;2023-05-28T08:59:27;2.88;;;1.90;;
11646;SDS011;5880;52.342;9.662;2023-05-28T09:01:53;3.15;;;2.03;;
11646;SDS011;5880;52.342;9.662;2023-05-28T09:04:20;2.00;;;1.80;;
11646;SDS011;5880;52.342;9.662;2023-05-28T09:06:46;2.40;;;1.90;;
11646;SDS011;5880;52.342;9.662;2023-05-28T09:09:16;2.83;;;2.10;;
11646;SDS011;5880;52.342;9.662;2023-05-28T09:11:42;3.47;;;1.85;;
11646;SDS011;5880;52.342;9.662;2023-05-28T09:14:12;1.70;;;1.52;;
11646;SDS011;5880;52.342;9.662;2023-05-28T09:16:42;2.08;;;1.80;;
11646;SDS011;5880;52.342;9.662;2023-05-28T09:19:09;2.67;;;1.88;;
11646;SDS011;5880;52.342;9.662;2023-05-28T09:21:39;2.42;;;2.05;;
11646;SDS011;5880;52.342;9.662;2023-05-28T09:24:22;2.10;;;1.90;;
11646;SDS011;5880;52.342;9.662;2023-05-28T09:26:50;1.98;;;1.70;;
11646;SDS011;5880;52.342;9.662;2023-05-28T09:29:20;2.72;;;1.80;;
11646;SDS011;5880;52.342;9.662;2023-05-28T09:31:57;1.83;;;1.67;;
11646;SDS011;5880;52.342;9.662;2023-05-28T09:34:28;2.20;;;1.90;;
11646;SDS011;5880;52.342;9.662;2023-05-28T09:37:02;2.03;;;1.75;;
11646;SDS011;5880;52.342;9.662;2023-05-28T09:39:29;1.95;;;1.75;;
11646;SDS011;5880;52.342;9.662;2023-05-28T09:42:02;2.10;;;1.90;;
11646;SDS011;5880;52.342;9.662;2023-05-28T09:44:34;3.00;;;1.90;;
11646;SDS011;5880;52.342;9.662;2023-05-28T09:47:14;2.25;;;1.83;;
11646;SDS011;5880;52.342;9.662;2023-05-28T09:49:45;2.75;;;2.03;;
11646;SDS011;5880;52.342;9.662;2023-05-28T09:52:22;2.53;;;2.10;;
11646;SDS011;5880;52.342;9.662;2023-05-28T09:54:53;2.40;;;1.98;;
11646;SDS011;5880;52.342;9.662;2023-05-28T09:57:23;2.30;;;1.80;;
11646;SDS011;5880;52.342;9.662;2023-05-28T09:59:54;2.50;;;1.73;;
11646;SDS011;5880;52.342;9.662;2023-05-28T10:05:02;2.00;;;1.80;;
11646;SDS011;5880;52.342;9.662;2023-05-28T10:07:32;2.42;;;1.80;;
11646;SDS011;5880;52.342;9.662;2023-05-28T10:10:01;1.95;;;1.70;;
11646;SDS011;5880;52.342;9.662;2023-05-28T10:12:28;2.10;;;1.90;;
11646;SDS011;5880;52.342;9.662;2023-05-28T10:14:56;2.08;;;1.73;;
11646;SDS011;5880;52.342;9.662;2023-05-28T10:17:23;2.88;;;1.85;;
11646;SDS011;5880;52.342;9.662;2023-05-28T10:19:49;2.65;;;1.85;;
11646;SDS011;5880;52.342;9.662;2023-05-28T10:22:15;2.38;;;1.67;;
11646;SDS011;5880;52.342;9.662;2023-05-28T10:24:42;2.10;;;1.95;;
11646;SDS011;5880;52.342;9.662;2023-05-28T10:27:12;2.35;;;2.10;;
11646;SDS011;5880;52.342;9.662;2023-05-28T10:29:44;2.50;;;2.05;;
11646;SDS011;5880;52.342;9.662;2023-05-28T10:32:14;2.83;;;2.20;;
11646;SDS011;5880;52.342;9.662;2023-05-28T10:34:41;2.03;;;1.83;;
11646;SDS011;5880;52.342;9.662;2023-05-28T10:37:08;3.15;;;1.95;;
11646;SDS011;5880;52.342;9.662;2023-05-28T10:39:42;2.47;;;1.90;;
11646;SDS011;5880;52.342;9.662;2023-05-28T10:42:17;3.03;;;2.00;;
11646;SDS011;5880;52.342;9.662;2023-05-28T10:45:04;3.42;;;1.83;;
11646;SDS011;5880;52.342;9.662;2023-05-28T10:47:41;2.38;;;2.00;;
11646;SDS011;5880;52.342;9.662;2023-05-28T10:50:18;2.08;;;1.88;;
11646;SDS011;5880;52.342;9.662;2023-05-28T10:53:03;2.65;;;2.10;;
11646;SDS011;5880;52.342;9.662;2023-05-28T10:58:33;2.50;;;2.05;;
11646;SDS011;5880;52.342;9.662;2023-05-28T11:01:00;3.10;;;2.15;;
11646;SDS011;5880;52.342;9.662;2023-05-28T11:03:53;2.03;;;1.83;;
11646;SDS011;5880;52.342;9.662;2023-05-28T11:06:24;5.03;;;2.30;;
11646;SDS011;5880;52.342;9.662;2023-05-28T11:08:53;3.05;;;2.20;;
11646;SDS011;5880;52.342;9.662;2023-05-28T11:11:22;2.58;;;2.20;;
11646;SDS011;5880;52.342;9.662;2023-05-28T11:13:49;2.67;;;2.05;;
11646;SDS011;5880;52.342;9.662;2023-05-28T11:16:16;2.83;;;2.00;;
11646;SDS011;5880;52.342;9.662;2023-05-28T11:18:59;2.15;;;1.83;;
11646;SDS011;5880;52.342;9.662;2023-05-28T11:21:26;2.50;;;2.20;;
11646;SDS011;5880;52.342;9.662;2023-05-28T11:23:59;2.05;;;1.90;;
11646;SDS011;5880;52.342;9.662;2023-05-28T11:26:29;3.80;;;2.45;;
11646;SDS011;5880;52.342;9.662;2023-05-28T11:28:57;3.00;;;2.22;;
11646;SDS011;5880;52.342;9.662;2023-05-28T11:31:23;3.17;;;1.83;;
11646;SDS011;5880;52.342;9.662;2023-05-28T11:33:49;2.72;;;2.08;;
11646;SDS011;5880;52.342;9.662;2023-05-28T11:36:15;2.20;;;1.85;;
11646;SDS011;5880;52.342;9.662;2023-05-28T11:38:43;3.03;;;2.05;;
11646;SDS011;5880;52.342;9.662;2023-05-28T11:41:09;2.40;;;1.90;;
11646;SDS011;5880;52.342;9.662;2023-05-28T11:43:35;3.00;;;2.03;;
11646;SDS011;5880;52.342;9.662;2023-05-28T11:46:00;3.88;;;2.17;;
11646;SDS011;5880;52.342;9.662;2023-05-28T11:48:35;2.80;;;2.17;;
11646;SDS011;5880;52.342;9.662;2023-05-28T11:51:02;2.90;;;2.10;;
11646;SDS011;5880;52.342;9.662;2023-05-28T11:53:46;3.25;;;2.03;;
11646;SDS011;5880;52.342;9.662;2023-05-28T11:56:12;3.47;;;2.30;;
11646;SDS011;5880;52.342;9.662;2023-05-28T11:58:38;3.80;;;2.40;;
11646;SDS011;5880;52.342;9.662;2023-05-28T12:01:13;3.83;;;2.42;;
11646;SDS011;5880;52.342;9.662;2023-05-28T12:03:43;2.38;;;2.13;;
11646;SDS011;5880;52.342;9.662;2023-05-28T12:06:09;3.47;;;2.20;;
11646;SDS011;5880;52.342;9.662;2023-05-28T12:08:39;2.72;;;1.75;;
11646;SDS011;5880;52.342;9.662;2023-05-28T12:11:07;3.15;;;2.10;;
11646;SDS011;5880;52.342;9.662;2023-05-28T12:13:33;3.97;;;2.00;;
11646;SDS011;5880;52.342;9.662;2023-05-28T12:16:09;2.55;;;2.00;;
11646;SDS011;5880;52.342;9.662;2023-05-28T12:18:43;2.80;;;2.20;;
11646;SDS011;5880;52.342;9.662;2023-05-28T12:21:12;2.22;;;2.00;;
11646;SDS011;5880;52.342;9.662;2023-05-28T12:23:45;1.98;;;1.88;;
11646;SDS011;5880;52.342;9.662;2023-05-28T12:26:13;3.40;;;2.45;;
11646;SDS011;5880;52.342;9.662;2023-05-28T12:28:40;2.83;;;2.08;;
11646;SDS011;5880;52.342;9.662;2023-05-28T12:31:06;2.45;;;1.90;;
11646;SDS011;5880;52.342;9.662;2023-05-28T12:33:33;2.65;;;2.30;;
11646;SDS011;5880;52.342;9.662;2023-05-28T12:35:59;4.32;;;2.08;;
11646;SDS011;5880;52.342;9.662;2023-05-28T12:38:25;2.60;;;2.20;;
11646;SDS011;5880;52.342;9.662;2023-05-28T12:40:52;2.55;;;1.98;;
11646;SDS011;5880;52.342;9.662;2023-05-28T12:43:18;3.03;;;2.00;;
11646;SDS011;5880;52.342;9.662;2023-05-28T12:45:45;2.35;;;1.98;;
11646;SDS011;5880;52.342;9.662;2023-05-28T12:48:11;2.85;;;2.08;;
11646;SDS011;5880;52.342;9.662;2023-05-28T12:50:36;4.53;;;2.17;;
11646;SDS011;5880;52.342;9.662;2023-05-28T12:53:02;2.92;;;2.00;;
11646;SDS011;5880;52.342;9.662;2023-05-28T12:55:31;2.60;;;2.05;;
11646;SDS011;5880;52.342;9.662;2023-05-28T12:57:57;3.28;;;2.20;;
11646;SDS011;5880;52.342;9.662;2023-05-28T13:00:22;2.38;;;2.05;;
11646;SDS011;5880;52.342;9.662;2023-05-28T13:02:49;2.28;;;2.08;;
11646;SDS011;5880;52.342;9.662;2023-05-28T13:05:15;2.60;;;2.10;;
11646;SDS011;5880;52.342;9.662;2023-05-28T13:07:41;2.90;;;2.03;;
11646;SDS011;5880;52.342;9.662;2023-05-28T13:10:08;2.65;;;2.25;;
11646;SDS011;5880;52.342;9.662;2023-05-28T13:12:36;3.08;;;2.13;;
11646;SDS011;5880;52.342;9.662;2023-05-28T13:15:05;2.92;;;2.10;;
11646;SDS011;5880;52.342;9.662;2023-05-28T13:17:32;2.53;;;2.08;;
11646;SDS011;5880;52.342;9.662;2023-05-28T13:19:58;2.65;;;2.30;;
11646;SDS011;5880;52.342;9.662;2023-05-28T13:22:25;3.33;;;2.30;;
11646;SDS011;5880;52.342;9.662;2023-05-28T13:24:50;3.28;;;2.50;;
11646;SDS011;5880;52.342;9.662;2023-05-28T13:27:16;2.47;;;2.00;;
11646;SDS011;5880;52.342;9.662;2023-05-28T13:29:42;2.75;;;2.15;;
11646;SDS011;5880;52.342;9.662;2023-05-28T13:32:08;2.40;;;2.20;;
11646;SDS011;5880;52.342;9.662;2023-05-28T13:34:34;3.05;;;2.00;;
11646;SDS011;5880;52.342;9.662;2023-05-28T13:37:00;3.38;;;2.30;;
11646;SDS011;5880;52.342;9.662;2023-05-28T13:39:26;6.85;;;2.50;;
11646;SDS011;5880;52.342;9.662;2023-05-28T13:41:51;3.33;;;2.35;;
11646;SDS011;5880;52.342;9.662;2023-05-28T13:44:17;4.13;;;2.22;;
11646;SDS011;5880;52.342;9.662;2023-05-28T13:46:43;3.25;;;2.22;;
11646;SDS011;5880;52.342;9.662;2023-05-28T13:49:09;3.50;;;2.40;;
11646;SDS011;5880;52.342;9.662;2023-05-28T13:51:35;4.85;;;2.22;;
11646;SDS011;5880;52.342;9.662;2023-05-28T13:54:04;2.92;;;2.15;;
11646;SDS011;5880;52.342;9.662;2023-05-28T13:56:30;3.58;;;2.22;;
11646;SDS011;5880;52.342;9.662;2023-05-28T13:58:55;2.72;;;2.20;;
11646;SDS011;5880;52.342;9.662;2023-05-28T14:01:21;3.67;;;2.20;;
11646;SDS011;5880;52.342;9.662;2023-05-28T14:03:47;2.63;;;2.08;;
11646;SDS011;5880;52.342;9.662;2023-05-28T14:06:12;3.50;;;2.40;;
11646;SDS011;5880;52.342;9.662;2023-05-28T14:08:38;2.92;;;2.20;;
11646;SDS011;5880;52.342;9.662;2023-05-28T14:11:04;4.22;;;2.42;;
11646;SDS011;5880;52.342;9.662;2023-05-28T14:13:30;3.90;;;2.70;;
11646;SDS011;5880;52.342;9.662;2023-05-28T14:15:59;3.13;;;2.70;;
11646;SDS011;5880;52.342;9.662;2023-05-28T14:18:25;3.05;;;2.55;;
11646;SDS011;5880;52.342;9.662;2023-05-28T14:20:52;3.45;;;2.60;;
11646;SDS011;5880;52.342;9.662;2023-05-28T14:23:17;2.67;;;2.20;;
11646;SDS011;5880;52.342;9.662;2023-05-28T14:25:43;2.67;;;2.42;;
11646;SDS011;5880;52.342;9.662;2023-05-28T14:28:09;2.83;;;2.35;;
11646;SDS011;5880;52.342;9.662;2023-05-28T14:30:35;3.10;;;2.33;;
11646;SDS011;5880;52.342;9.662;2023-05-28T14:33:00;3.30;;;2.60;;
11646;SDS011;5880;52.342;9.662;2023-05-28T14:35:26;3.63;;;2.50;;
11646;SDS011;5880;52.342;9.662;2023-05-28T14:37:51;2.58;;;2.35;;
11646;SDS011;5880;52.342;9.662;2023-05-28T14:40:17;2.85;;;2.45;;
11646;SDS011;5880;52.342;9.662;2023-05-28T14:42:44;3.70;;;2.50;;
11646;SDS011;5880;52.342;9.662;2023-05-28T14:45:10;3.30;;;2.40;;
11646;SDS011;5880;52.342;9.662;2023-05-28T14:47:37;5.07;;;3.03;;
11646;SDS011;5880;52.342;9.662;2023-05-28T14:50:03;2.80;;;2.50;;
11646;SDS011;5880;52.342;9.662;2023-05-28T14:52:30;3.05;;;2.05;;
11646;SDS011;5880;52.342;9.662;2023-05-28T14:54:56;2.83;;;2.28;;
11646;SDS011;5880;52.342;9.662;2023-05-28T14:57:24;3.88;;;2.40;;
11646;SDS011;5880;52.342;9.662;2023-05-28T14:59:58;3.55;;;2.40;;
11646;SDS011;5880;52.342;9.662;2023-05-28T15:02:29;3.67;;;2.55;;
11646;SDS011;5880;52.342;9.662;2023-05-28T15:04:55;5.13;;;2.60;;
11646;SDS011;5880;52.342;9.662;2023-05-28T15:07:20;3.10;;;2.47;;